Des Plaines, IL

7:57 AM CDT on May 03, 2015 (GMT -0500)
Hawaii Park | | Change Station
CLOSE
Current Station
Personal Weather Station
Location: Des Plaines, IL
Elevation: 669 ft
Nearby Weather Stations

Elev 669 ft 42.06 °N, 87.91 °W | Updated 2 seconds ago

Partly Cloudy
Partly Cloudy
66.7 °F
Feels Like 66.7 °F
N
3.0
Wind Variable Wind from SE
Gusts 9.0 mph

Today
High -- | Low -- °F
--% Chance of Precip.
Yesterday
High -- | Low -- °F
Precip. -- in
5:45 AM 7:52 PM
Full, 100% visible
Pressure 29.98 in
Visibility 10.0 miles
Clouds Clear
Dew Point 48 °F
Humidity 52%
Rainfall 0.00 in
Snow Depth Not available.
UV 2 out of 12
Pollen 10.80 out of 12
Air Quality Not available.
Flu Activity Local Activity
METAR KPWK 031252Z 18009KT 10SM CLR 18/07 A2998 RMK AO2 SLP150 T01780072

More Conditions Fewer Conditions

Pressure 29.98 in
Visibility 10.0 miles
Clouds Clear
Dew Point 48 °F
Humidity 52%
Rainfall 0.00 in
Snow Depth Not available.
UV 2 out of 12
Pollen 10.80 out of 12
Air Quality Not available.
Flu Activity Local Activity
METAR KPWK 031252Z 18009KT 10SM CLR 18/07 A2998 RMK AO2 SLP150 T01780072

More Conditions Fewer Conditions

Nepal has a long way to go to dig out and rebuild from a devastating earthquake. We have teamed up with several charities and organizations to make contributing to the relief effort as easy as possible.
How you can help: Portlight Strategies | Red Cross

10-Day Weather Forecast

Almanac

Astronomy

May. 03, 2015 Rise Set
Actual Time
Civil Twilight
Nautical Twilight
Astronomical Twilight
Moon
Length of Visible Light
Length of Day
Tomorrow will be .
, % of the Moon is Illuminated

Today's Extremes

State Highs State Lows

Community

WunderPhotos

Upload Photos

1,818,200 photos uploaded!

WunderBlogs® & News

Nearby

Air Quality

  Air Quality AQ Index Pollutant
Not available.

Snow Depth

Station Depth Elevation

Earthquake Activity

City Distance Mag. Time & Date
Minimum magnitude displayed is 2.5.

Coastal Water Temperatures

Place Temperature

Stations

Nearby Weather Stations

Station Location Temp. Windchill Dew Point Humidity Wind Precip. Elev Updated Type